Time;durP1;ratioP1;P1;durP2;ratioP2;P2;SDS_P1;SDS_P2;PMS_P1;PMS_P2;Temp;Humidity;BMP_temperature;BMP_pressure;BME280_temperature;BME280_humidity;BME280_pressure;Samples;Min_cycle;Max_cycle;Signal;HPM_P1;HPM_P2
2023/04/20 00:01:09;;;;;;;23.83;14.48;;;;;;;;;;4895498;29;20040;-96
2023/04/20 00:03:47;;;;;;;22.17;15.15;;;;;;;;;;4887911;29;20039;-96
2023/04/20 00:06:46;;;;;;;21.65;14.20;;;;;;;;;;4899109;29;20048;-96
2023/04/20 00:09:15;;;;;;;23.15;14.85;;;;;;;;;;4886435;29;20085;-95
2023/04/20 00:12:12;;;;;;;21.92;14.98;;;;;;;;;;4887620;29;20033;-96
2023/04/20 00:14:41;;;;;;;22.80;14.07;;;;;;;;;;4895152;29;20033;-94
2023/04/20 00:17:10;;;;;;;20.63;14.00;;;;;;;;;;4960178;23;20498;-89
2023/04/20 00:19:48;;;;;;;21.45;13.45;;;;;;;;;;4902021;29;20569;-95
2023/04/20 00:22:15;;;;;;;19.67;13.48;;;;;;;;;;4885044;29;20462;-89
2023/04/20 00:24:44;;;;;;;17.15;12.65;;;;;;;;;;4903583;29;20049;-96
2023/04/20 00:27:10;;;;;;;23.38;14.23;;;;;;;;;;4906046;29;20060;-87
2023/04/20 00:29:55;;;;;;;21.25;14.38;;;;;;;;;;4904951;29;20033;-95
2023/04/20 00:32:21;;;;;;;22.33;14.77;;;;;;;;;;4890997;29;20058;-89
2023/04/20 00:35:00;;;;;;;22.92;14.43;;;;;;;;;;4889950;29;20129;-96
2023/04/20 00:37:26;;;;;;;21.05;14.63;;;;;;;;;;4895956;29;20021;-88
2023/04/20 00:39:52;;;;;;;19.88;13.95;;;;;;;;;;4888162;29;20035;-89
2023/04/20 00:42:18;;;;;;;22.65;13.13;;;;;;;;;;4889127;29;20025;-88
2023/04/20 00:44:44;;;;;;;18.90;13.63;;;;;;;;;;4892803;29;20041;-90
2023/04/20 00:47:10;;;;;;;18.55;13.50;;;;;;;;;;4895206;29;20025;-90
2023/04/20 00:49:40;;;;;;;22.95;14.02;;;;;;;;;;4887141;29;20098;-95
2023/04/20 00:52:08;;;;;;;20.40;13.95;;;;;;;;;;4909116;29;20037;-89
2023/04/20 00:55:07;;;;;;;19.02;13.30;;;;;;;;;;4891646;29;20036;-95
2023/04/20 00:57:50;;;;;;;18.42;13.02;;;;;;;;;;4883042;29;20049;-90
2023/04/20 01:00:56;;;;;;;15.75;11.07;;;;;;;;;;4884465;29;20041;-95
2023/04/20 01:03:51;;;;;;;16.98;12.15;;;;;;;;;;4890489;29;20112;-95
2023/04/20 01:06:49;;;;;;;18.92;13.10;;;;;;;;;;4888630;29;20049;-95
2023/04/20 01:09:24;;;;;;;20.52;14.10;;;;;;;;;;4885872;29;20053;-96
2023/04/20 01:11:56;;;;;;;20.77;14.63;;;;;;;;;;4890107;29;20033;-96
2023/04/20 01:14:48;;;;;;;21.30;15.02;;;;;;;;;;4889767;29;20062;-96
2023/04/20 01:17:22;;;;;;;31.48;21.20;;;;;;;;;;4885678;29;20071;-93
2023/04/20 01:19:58;;;;;;;26.92;18.38;;;;;;;;;;4876059;29;20033;-96
2023/04/20 01:22:48;;;;;;;21.92;14.98;;;;;;;;;;4883827;29;20045;-96
2023/04/20 01:28:25;;;;;;;23.33;14.13;;;;;;;;;;5175938;24;20092;-96
2023/04/20 01:30:52;;;;;;;26.90;17.63;;;;;;;;;;4904660;29;20013;-90
2023/04/20 01:33:18;;;;;;;27.90;18.02;;;;;;;;;;4902420;29;20029;-90
2023/04/20 01:35:44;;;;;;;26.40;18.02;;;;;;;;;;4887951;29;20021;-90
2023/04/20 01:38:10;;;;;;;28.90;18.90;;;;;;;;;;4901667;29;20033;-90
2023/04/20 01:41:21;;;;;;;34.38;21.30;;;;;;;;;;4891458;29;20037;-96
2023/04/20 01:43:55;;;;;;;31.90;20.38;;;;;;;;;;4862887;29;20045;-95
2023/04/20 01:46:40;;;;;;;38.13;22.30;;;;;;;;;;4903597;29;20049;-96
2023/04/20 01:49:06;;;;;;;36.53;23.00;;;;;;;;;;4895644;29;20367;-90
2023/04/20 01:52:06;;;;;;;38.08;24.20;;;;;;;;;;4886816;29;20041;-96
2023/04/20 01:54:32;;;;;;;33.20;20.73;;;;;;;;;;4849687;29;20040;-89
2023/04/20 01:57:11;;;;;;;25.00;16.55;;;;;;;;;;4895925;29;20033;-96
2023/04/20 01:59:40;;;;;;;28.98;18.63;;;;;;;;;;4903688;29;20033;-95
2023/04/20 02:02:06;;;;;;;24.05;15.00;;;;;;;;;;4910819;29;20549;-89
2023/04/20 02:04:41;;;;;;;22.63;15.15;;;;;;;;;;4903087;29;20101;-95
2023/04/20 02:07:10;;;;;;;20.00;14.50;;;;;;;;;;4892169;29;20036;-94
2023/04/20 02:09:42;;;;;;;22.45;15.70;;;;;;;;;;4903618;29;20029;-96
2023/04/20 02:12:08;;;;;;;17.50;12.57;;;;;;;;;;4899274;29;20044;-95
2023/04/20 02:14:52;;;;;;;19.50;13.57;;;;;;;;;;4888311;29;20048;-94
2023/04/20 02:17:18;;;;;;;19.48;13.85;;;;;;;;;;4889095;29;20045;-89
2023/04/20 02:19:54;;;;;;;20.85;13.50;;;;;;;;;;4888674;29;20045;-95
2023/04/20 02:22:20;;;;;;;22.75;14.00;;;;;;;;;;5032001;23;20040;-90
2023/04/20 02:24:46;;;;;;;20.25;14.18;;;;;;;;;;4903674;29;20083;-90
2023/04/20 02:27:12;;;;;;;21.58;14.48;;;;;;;;;;4885905;29;20037;-89
2023/04/20 02:29:41;;;;;;;20.70;14.30;;;;;;;;;;4904610;29;20136;-96
2023/04/20 02:32:17;;;;;;;21.48;13.38;;;;;;;;;;4889584;29;20055;-96
2023/04/20 02:34:43;;;;;;;19.90;14.25;;;;;;;;;;4898153;29;20040;-93
2023/04/20 02:37:09;;;;;;;21.52;14.63;;;;;;;;;;4891260;29;20605;-90
2023/04/20 02:39:44;;;;;;;20.42;14.10;;;;;;;;;;4887021;29;20465;-94
2023/04/20 02:42:11;;;;;;;19.90;13.93;;;;;;;;;;4889764;29;20040;-91
2023/04/20 02:44:41;;;;;;;20.20;13.63;;;;;;;;;;4886474;29;20406;-96
2023/04/20 02:47:10;;;;;;;19.35;14.00;;;;;;;;;;4904568;29;20013;-96
2023/04/20 02:50:15;;;;;;;23.08;14.88;;;;;;;;;;4886932;29;20033;-96
2023/04/20 02:53:17;;;;;;;;;;;;;;;;;;;;;
2023/04/20 02:55:53;;;;;;;20.30;13.48;;;;;;;;;;4830246;29;20042;-89
2023/04/20 02:58:55;;;;;;;21.92;13.70;;;;;;;;;;4814572;29;20041;-96
2023/04/20 03:01:24;;;;;;;18.65;12.20;;;;;;;;;;4823184;29;20048;-96
2023/04/20 03:03:50;;;;;;;21.55;14.13;;;;;;;;;;4820380;29;20354;-89
2023/04/20 03:06:19;;;;;;;20.83;14.43;;;;;;;;;;4892608;29;20061;-89
2023/04/20 03:09:23;;;;;;;22.88;14.40;;;;;;;;;;4886470;29;20037;-96
2023/04/20 03:12:10;;;;;;;23.90;14.73;;;;;;;;;;4901432;29;20041;-96
2023/04/20 03:14:45;;;;;;;21.10;13.80;;;;;;;;;;4897296;29;20108;-89
2023/04/20 03:17:11;;;;;;;24.17;15.52;;;;;;;;;;4887078;29;20048;-89
2023/04/20 03:19:40;;;;;;;22.02;15.23;;;;;;;;;;4905329;29;20081;-93
2023/04/20 03:22:12;;;;;;;22.48;14.95;;;;;;;;;;4902643;29;20109;-94
2023/04/20 03:28:05;;;;;;;22.58;14.27;;;;;;;;;;5059700;23;20074;-96
2023/04/20 03:32:01;;;;;;;25.42;16.80;;;;;;;;;;4869840;29;20038;-96
2023/04/20 03:36:40;;;;;;;21.50;15.30;;;;;;;;;;4787701;30;19920;-91
2023/04/20 03:39:42;;;;;;;27.35;17.95;;;;;;;;;;4770243;29;20058;-95
2023/04/20 03:42:11;;;;;;;23.20;15.38;;;;;;;;;;4706181;30;20033;-96
2023/04/20 03:44:46;;;;;;;27.10;16.50;;;;;;;;;;4707642;30;20100;-95
2023/04/20 03:47:12;;;;;;;29.58;18.00;;;;;;;;;;4706077;30;20033;-91
2023/04/20 03:49:38;;;;;;;30.27;17.17;;;;;;;;;;4718290;30;20534;-86
2023/04/20 03:52:13;;;;;;;30.70;19.00;;;;;;;;;;4698445;30;20100;-95
2023/04/20 03:54:46;;;;;;;27.83;19.05;;;;;;;;;;4716000;30;20450;-92
2023/04/20 03:57:12;;;;;;;31.88;19.20;;;;;;;;;;4710751;30;20499;-88
2023/04/20 03:59:58;;;;;;;33.28;19.73;;;;;;;;;;4708541;30;20107;-95
2023/04/20 04:02:42;;;;;;;29.98;18.38;;;;;;;;;;4712555;30;20053;-95
2023/04/20 04:11:44;;;;;;;33.97;19.05;;;;;;;;;;4767382;30;20039;-89
2023/04/20 04:14:10;;;;;;;32.72;18.98;;;;;;;;;;4754136;30;20566;-89
2023/04/20 04:16:49;;;;;;;34.55;18.95;;;;;;;;;;4825417;29;20042;-95
2023/04/20 04:19:15;;;;;;;30.67;18.80;;;;;;;;;;4870153;29;20132;-89
2023/04/20 04:21:41;;;;;;;31.50;19.10;;;;;;;;;;4864341;29;20117;-88
2023/04/20 04:24:08;;;;;;;30.40;18.35;;;;;;;;;;4865854;29;20038;-87
2023/04/20 04:26:44;;;;;;;29.73;17.45;;;;;;;;;;4853045;29;20026;-93
2023/04/20 04:29:50;;;;;;;;;;;;;;;;;;;;;
2023/04/20 04:32:20;;;;;;;23.25;14.52;;;;;;;;;;4791002;29;20102;-95
2023/04/20 04:34:49;;;;;;;22.75;14.77;;;;;;;;;;4873957;29;20037;-96
2023/04/20 04:37:37;;;;;;;22.88;14.43;;;;;;;;;;4870857;29;20034;-96
2023/04/20 04:40:21;;;;;;;22.20;13.88;;;;;;;;;;4827876;29;20046;-96
2023/04/20 04:42:48;;;;;;;22.70;14.10;;;;;;;;;;4827514;29;20047;-95
2023/04/20 04:45:18;;;;;;;24.33;14.45;;;;;;;;;;4836375;29;20077;-88
2023/04/20 04:47:44;;;;;;;21.08;13.93;;;;;;;;;;4852712;29;20034;-90
2023/04/20 04:50:11;;;;;;;21.80;15.50;;;;;;;;;;4847531;29;20034;-89
2023/04/20 04:58:17;;;;;;;19.38;13.20;;;;;;;;;;5099516;23;20175;-85
2023/04/20 05:00:52;;;;;;;21.98;15.45;;;;;;;;;;4894396;29;20494;-96
2023/04/20 05:03:18;;;;;;;20.95;14.30;;;;;;;;;;4897401;29;20065;-86
2023/04/20 05:05:44;;;;;;;19.40;13.45;;;;;;;;;;4904293;29;20045;-90
2023/04/20 05:08:11;;;;;;;16.48;13.88;;;;;;;;;;4902294;29;20025;-88
2023/04/20 05:10:39;;;;;;;21.92;14.35;;;;;;;;;;4896746;29;20068;-90
2023/04/20 05:13:05;;;;;;;16.52;13.32;;;;;;;;;;4882337;29;20033;-92
2023/04/20 05:15:31;;;;;;;17.40;13.52;;;;;;;;;;4879530;29;20083;-86
2023/04/20 05:17:57;;;;;;;16.08;13.75;;;;;;;;;;4879101;29;20029;-86
2023/04/20 05:20:23;;;;;;;14.25;12.73;;;;;;;;;;4882292;29;20124;-95
2023/04/20 05:22:49;;;;;;;15.82;14.23;;;;;;;;;;4881867;29;20092;-85
2023/04/20 05:25:15;;;;;;;16.88;14.27;;;;;;;;;;4885248;29;20097;-88
2023/04/20 05:27:41;;;;;;;13.88;12.40;;;;;;;;;;4885408;29;20041;-86
2023/04/20 05:30:08;;;;;;;14.00;12.45;;;;;;;;;;4896740;29;20037;-90
2023/04/20 05:32:34;;;;;;;13.80;12.40;;;;;;;;;;4896358;29;20029;-88
2023/04/20 05:35:03;;;;;;;13.65;12.30;;;;;;;;;;4900158;29;20029;-94
2023/04/20 05:37:41;;;;;;;12.95;11.65;;;;;;;;;;4897582;29;20025;-94
2023/04/20 05:40:20;;;;;;;12.50;10.60;;;;;;;;;;4885078;29;20040;-95
2023/04/20 05:42:46;;;;;;;12.40;10.80;;;;;;;;;;4882615;29;20025;-87
2023/04/20 05:45:14;;;;;;;11.65;10.45;;;;;;;;;;4882524;29;20045;-89
2023/04/20 05:48:15;;;;;;;11.80;10.10;;;;;;;;;;4901748;29;20021;-92
2023/04/20 05:50:47;;;;;;;12.57;11.27;;;;;;;;;;4817179;29;20057;-93
2023/04/20 05:53:44;;;;;;;11.95;10.65;;;;;;;;;;4825396;29;20124;-88
2023/04/20 05:56:11;;;;;;;13.60;10.73;;;;;;;;;;4891080;29;20133;-90
2023/04/20 05:58:37;;;;;;;11.68;10.48;;;;;;;;;;4889004;29;20081;-91
2023/04/20 06:04:07;;;;;;;18.88;11.40;;;;;;;;;;4892585;29;20033;-93
2023/04/20 06:06:47;;;;;;;12.18;10.98;;;;;;;;;;4861805;29;20045;-94
2023/04/20 06:09:41;;;;;;;13.52;12.13;;;;;;;;;;4881607;29;20108;-95
2023/04/20 06:12:30;;;;;;;12.23;10.93;;;;;;;;;;4815358;29;20042;-93
2023/04/20 06:27:43;;;;;;;12.15;10.88;;;;;;;;;;4798591;29;20136;-94
2023/04/20 06:30:52;;;;;;;;;;;;;;;;;;;;;
2023/04/20 06:33:44;;;;;;;11.65;10.45;;;;;;;;;;4832600;29;20036;-93
2023/04/20 06:36:10;;;;;;;13.23;11.90;;;;;;;;;;4817702;29;20044;-93
2023/04/20 06:38:53;;;;;;;12.05;9.82;;;;;;;;;;4820845;29;20033;-93
2023/04/20 06:41:46;;;;;;;11.07;9.90;;;;;;;;;;4830519;29;20517;-93
2023/04/20 06:44:12;;;;;;;;;;;;;;;;;;4830243;29;20275;-93
2023/04/20 08:46:03;;;;;;;13.55;11.02;;;;;;;;;;5148390;24;20068;-94
2023/04/20 14:41:38;;;;;;;10.33;9.10;;;;;;;;;;5919540;23;21300;31
2023/04/20 14:44:04;;;;;;;9.85;8.68;;;;;;;;;;4826823;29;20058;-91
2023/04/20 14:46:32;;;;;;;10.05;8.85;;;;;;;;;;4826496;29;20456;-93
2023/04/20 14:48:58;;;;;;;10.50;8.55;;;;;;;;;;4809986;29;20031;-95
2023/04/20 14:59:32;;;;;;;11.65;10.40;;;;;;;;;;5115384;23;20049;-93
2023/04/20 15:01:58;;;;;;;17.38;14.60;;;;;;;;;;4895517;29;20386;-92
2023/04/20 15:04:25;;;;;;;14.95;13.50;;;;;;;;;;4895675;29;20060;-95
2023/04/20 15:06:51;;;;;;;16.35;12.95;;;;;;;;;;4895889;29;20037;-95
2023/04/20 15:09:17;;;;;;;14.32;12.48;;;;;;;;;;4880193;29;20040;-93
2023/04/20 15:11:43;;;;;;;15.40;13.40;;;;;;;;;;4879787;29;20033;-90
2023/04/20 15:14:09;;;;;;;17.10;13.20;;;;;;;;;;4879856;29;20047;-89
2023/04/20 15:16:37;;;;;;;15.57;12.70;;;;;;;;;;4879588;29;20029;-93
2023/04/20 15:19:03;;;;;;;15.38;12.95;;;;;;;;;;4879815;29;20521;-94
2023/04/20 15:21:32;;;;;;;14.25;12.75;;;;;;;;;;4896361;29;20029;-93
2023/04/20 15:24:17;;;;;;;15.25;13.07;;;;;;;;;;4895751;29;20037;-88
2023/04/20 15:26:43;;;;;;;14.77;13.00;;;;;;;;;;4879780;29;20037;-94
2023/04/20 15:29:09;;;;;;;14.82;12.65;;;;;;;;;;4879799;29;20115;-94
2023/04/20 15:31:36;;;;;;;15.20;13.50;;;;;;;;;;4895187;29;20081;-94
2023/04/20 15:34:03;;;;;;;14.25;12.27;;;;;;;;;;4880518;29;20033;-92
2023/04/20 15:36:29;;;;;;;15.00;12.55;;;;;;;;;;4880188;29;20040;-87
2023/04/20 15:38:55;;;;;;;12.98;11.65;;;;;;;;;;4879306;29;20025;-94
2023/04/20 15:41:22;;;;;;;13.60;10.68;;;;;;;;;;4879735;29;20085;-95
2023/04/20 15:43:50;;;;;;;12.90;11.10;;;;;;;;;;4879749;29;20447;-95
2023/04/20 15:46:16;;;;;;;13.90;12.48;;;;;;;;;;4880352;29;20041;-94
2023/04/20 15:48:43;;;;;;;14.43;12.85;;;;;;;;;;4881216;29;20036;-89
2023/04/20 15:51:09;;;;;;;13.20;11.65;;;;;;;;;;4895500;29;20040;-94
2023/04/20 15:53:36;;;;;;;14.07;12.52;;;;;;;;;;4895527;29;20111;-89
2023/04/20 15:56:02;;;;;;;15.52;13.93;;;;;;;;;;4879669;29;20068;-91
2023/04/20 15:58:28;;;;;;;17.08;14.55;;;;;;;;;;4894269;29;20067;-95
2023/04/20 16:00:54;;;;;;;17.35;13.40;;;;;;;;;;4894487;29;20028;-94
2023/04/20 16:03:20;;;;;;;23.67;17.63;;;;;;;;;;4894448;29;20466;-86
2023/04/20 16:05:46;;;;;;;20.80;16.00;;;;;;;;;;4895052;29;20498;-96
2023/04/20 16:08:19;;;;;;;17.42;13.93;;;;;;;;;;4885715;29;20036;-93
2023/04/20 16:10:50;;;;;;;22.88;18.80;;;;;;;;;;4881297;29;20041;-93
2023/04/20 16:13:16;;;;;;;33.17;22.98;;;;;;;;;;4900324;29;20077;-91
2023/04/20 16:15:42;;;;;;;43.70;26.95;;;;;;;;;;4913614;29;20080;-91
2023/04/20 16:18:08;;;;;;;26.67;18.30;;;;;;;;;;4895809;29;20029;-95
2023/04/20 16:20:34;;;;;;;15.10;13.45;;;;;;;;;;4882293;29;20112;-91
2023/04/20 16:23:00;;;;;;;13.77;12.13;;;;;;;;;;4887195;23;20049;-92
2023/04/20 16:25:27;;;;;;;14.25;12.50;;;;;;;;;;4875324;29;20045;-92
2023/04/20 16:27:53;;;;;;;14.82;11.75;;;;;;;;;;4875638;29;20192;-87
2023/04/20 16:30:20;;;;;;;15.60;12.77;;;;;;;;;;4866402;29;20606;-90
2023/04/20 16:32:49;;;;;;;14.88;13.20;;;;;;;;;;4858980;29;20073;-95
2023/04/20 16:35:16;;;;;;;16.88;13.50;;;;;;;;;;4875011;29;20097;-88
2023/04/20 16:37:42;;;;;;;17.50;13.85;;;;;;;;;;4877981;29;20041;-95
2023/04/20 16:40:24;;;;;;;16.75;15.00;;;;;;;;;;4869512;29;20614;-93
2023/04/20 16:42:53;;;;;;;17.67;14.32;;;;;;;;;;4863291;29;20044;-94
2023/04/20 16:45:19;;;;;;;17.08;15.38;;;;;;;;;;4875251;29;20036;-89
2023/04/20 16:47:51;;;;;;;20.08;15.20;;;;;;;;;;4861968;29;20038;-95
2023/04/20 16:50:20;;;;;;;18.83;15.30;;;;;;;;;;4860076;29;20040;-90
2023/04/20 16:52:47;;;;;;;17.98;14.80;;;;;;;;;;4875249;29;20060;-89
2023/04/20 16:55:13;;;;;;;18.00;15.82;;;;;;;;;;4874693;29;20029;-87
2023/04/20 16:57:40;;;;;;;26.33;21.70;;;;;;;;;;4859856;29;20040;-93
2023/04/20 17:00:09;;;;;;;26.20;18.83;;;;;;;;;;4861264;29;20036;-92
2023/04/20 17:02:36;;;;;;;19.50;17.15;;;;;;;;;;4845152;29;20125;-88
2023/04/20 17:05:03;;;;;;;21.65;19.33;;;;;;;;;;4862560;29;20041;-92
2023/04/20 17:07:30;;;;;;;20.60;18.40;;;;;;;;;;4879601;29;20089;-88
2023/04/20 17:09:57;;;;;;;20.35;17.67;;;;;;;;;;4865905;29;20483;-90
2023/04/20 17:12:23;;;;;;;28.77;22.92;;;;;;;;;;4863647;29;20064;-88
2023/04/20 17:14:49;;;;;;;45.22;33.40;;;;;;;;;;4863249;29;20081;-87
2023/04/20 17:17:16;;;;;;;21.58;15.90;;;;;;;;;;4862460;29;20032;-94
2023/04/20 17:19:46;;;;;;;15.48;13.27;;;;;;;;;;4863014;29;20029;-88
2023/04/20 17:22:13;;;;;;;16.25;14.35;;;;;;;;;;4864629;29;20182;-88
2023/04/20 17:24:39;;;;;;;16.33;13.93;;;;;;;;;;4864609;29;20098;-92
2023/04/20 17:27:05;;;;;;;18.15;13.43;;;;;;;;;;4862879;29;20026;-94
2023/04/20 17:29:34;;;;;;;16.65;13.30;;;;;;;;;;4864428;29;20444;-94
2023/04/20 17:38:06;;;;;;;18.97;14.90;;;;;;;;;;5222559;23;20128;-92
2023/04/20 17:40:33;;;;;;;26.45;18.42;;;;;;;;;;4895021;29;20486;-93
2023/04/20 17:42:59;;;;;;;21.83;17.35;;;;;;;;;;4895224;29;20029;-93
2023/04/20 17:45:49;;;;;;;26.17;19.50;;;;;;;;;;4895657;29;20053;-88
2023/04/20 17:48:18;;;;;;;29.85;22.17;;;;;;;;;;4880315;29;20029;-93
2023/04/20 17:50:47;;;;;;;31.67;22.95;;;;;;;;;;4896723;29;20136;-94
2023/04/20 17:53:13;;;;;;;27.20;21.83;;;;;;;;;;4912328;29;20065;-87
2023/04/20 17:55:40;;;;;;;30.52;19.25;;;;;;;;;;4887205;29;20041;-91
2023/04/20 17:58:06;;;;;;;24.00;19.00;;;;;;;;;;4886938;29;20036;-93
2023/04/20 18:00:32;;;;;;;23.50;18.48;;;;;;;;;;4881658;29;20068;-91
2023/04/20 18:02:59;;;;;;;25.08;19.50;;;;;;;;;;4881787;29;20033;-93
2023/04/20 18:05:25;;;;;;;23.10;19.60;;;;;;;;;;4881075;29;20041;-91
2023/04/20 18:07:52;;;;;;;26.88;18.67;;;;;;;;;;4896795;29;20037;-94
2023/04/20 18:10:18;;;;;;;30.30;18.95;;;;;;;;;;4896788;29;20090;-92
2023/04/20 18:12:44;;;;;;;28.50;18.00;;;;;;;;;;4881250;29;20120;-93
2023/04/20 18:15:11;;;;;;;28.63;18.75;;;;;;;;;;4880610;29;20033;-92
2023/04/20 18:17:37;;;;;;;31.25;22.52;;;;;;;;;;4896929;29;20048;-92
2023/04/20 18:20:04;;;;;;;53.38;31.70;;;;;;;;;;4881686;29;20585;-94
2023/04/20 18:22:32;;;;;;;70.10;39.22;;;;;;;;;;4881334;29;20028;-94
2023/04/20 18:24:58;;;;;;;89.65;47.60;;;;;;;;;;4896784;29;20132;-91
2023/04/20 18:27:25;;;;;;;109.60;57.20;;;;;;;;;;4878985;29;20047;-87
2023/04/20 18:29:52;;;;;;;113.47;61.58;;;;;;;;;;4878519;29;20143;-87
2023/04/20 18:32:18;;;;;;;95.43;53.80;;;;;;;;;;4878748;29;20468;-90
2023/04/20 18:34:45;;;;;;;97.05;57.05;;;;;;;;;;4878581;29;20495;-91
2023/04/20 18:37:11;;;;;;;96.75;56.42;;;;;;;;;;4879505;29;20371;-90
2023/04/20 18:39:38;;;;;;;85.93;50.97;;;;;;;;;;4880147;29;20048;-91
2023/04/20 18:45:12;;;;;;;51.50;35.80;;;;;;;;;;4882341;29;20051;-92
2023/04/20 18:47:38;;;;;;;51.78;35.70;;;;;;;;;;4880521;29;20052;-93
2023/04/20 18:50:04;;;;;;;52.10;34.63;;;;;;;;;;4880215;29;20040;-93
2023/04/20 18:52:41;;;;;;;44.92;31.88;;;;;;;;;;4895504;29;20447;-93
2023/04/20 18:55:11;;;;;;;43.95;31.63;;;;;;;;;;4880357;29;20057;-89
2023/04/20 18:57:37;;;;;;;38.97;28.90;;;;;;;;;;4880171;29;20029;-91
2023/04/20 19:00:06;;;;;;;36.25;26.90;;;;;;;;;;4880280;29;20033;-92
2023/04/20 19:02:32;;;;;;;34.85;24.85;;;;;;;;;;4880572;29;20025;-93
2023/04/20 19:04:59;;;;;;;30.92;22.95;;;;;;;;;;4880022;29;20123;-89
2023/04/20 19:07:25;;;;;;;27.85;20.70;;;;;;;;;;4880200;29;20036;-89
2023/04/20 19:09:54;;;;;;;28.45;21.35;;;;;;;;;;4880316;29;20025;-91
2023/04/20 19:12:20;;;;;;;26.17;19.63;;;;;;;;;;4896014;29;20033;-91
2023/04/20 19:14:46;;;;;;;27.77;18.98;;;;;;;;;;4895328;29;20176;-87
2023/04/20 19:17:13;;;;;;;24.85;18.55;;;;;;;;;;4879465;29;20021;-85
2023/04/20 19:19:46;;;;;;;24.40;18.95;;;;;;;;;;4879259;29;20524;-90
2023/04/20 19:22:16;;;;;;;27.48;19.17;;;;;;;;;;4881031;29;20080;-87
2023/04/20 19:24:42;;;;;;;23.63;18.35;;;;;;;;;;4887975;29;20055;-87
2023/04/20 19:27:08;;;;;;;22.67;17.90;;;;;;;;;;4895895;29;20029;-88
2023/04/20 19:29:36;;;;;;;22.95;18.10;;;;;;;;;;4891493;29;20033;-92
2023/04/20 19:32:02;;;;;;;23.30;17.75;;;;;;;;;;4880464;29;20037;-92
2023/04/20 19:34:58;;;;;;;23.42;18.40;;;;;;;;;;4895108;29;20029;-91
2023/04/20 19:37:24;;;;;;;20.95;17.02;;;;;;;;;;4881100;29;20036;-87
2023/04/20 19:39:57;;;;;;;23.90;18.02;;;;;;;;;;4879555;29;20057;-89
2023/04/20 19:42:23;;;;;;;23.65;17.48;;;;;;;;;;4894722;29;20516;-93
2023/04/20 19:44:57;;;;;;;22.75;17.10;;;;;;;;;;4881510;29;20037;-89
2023/04/20 19:47:23;;;;;;;22.42;17.48;;;;;;;;;;4885410;29;20419;-89
2023/04/20 19:49:49;;;;;;;20.75;15.68;;;;;;;;;;4879161;29;20053;-93
2023/04/20 19:52:15;;;;;;;21.95;15.52;;;;;;;;;;4879211;29;20037;-88
2023/04/20 19:54:41;;;;;;;22.05;16.80;;;;;;;;;;4879248;29;20044;-92
2023/04/20 19:57:07;;;;;;;20.98;16.20;;;;;;;;;;4878426;29;20060;-88
2023/04/20 19:59:36;;;;;;;26.27;17.50;;;;;;;;;;4880199;29;20033;-93
2023/04/20 20:02:05;;;;;;;25.42;17.15;;;;;;;;;;4879388;29;20063;-89
2023/04/20 20:04:32;;;;;;;27.80;19.45;;;;;;;;;;4878644;29;20097;-88
2023/04/20 20:19:57;;;;;;;25.27;19.52;;;;;;;;;;4964804;23;20088;-87
2023/04/20 20:22:23;;;;;;;38.03;25.63;;;;;;;;;;4879099;29;20033;-89
2023/04/20 20:24:52;;;;;;;41.53;26.75;;;;;;;;;;4877847;29;20036;-86
2023/04/20 20:27:18;;;;;;;46.92;30.70;;;;;;;;;;4877999;29;20040;-87
2023/04/20 20:29:44;;;;;;;51.63;31.65;;;;;;;;;;4878305;29;20482;-88
2023/04/20 20:32:11;;;;;;;54.50;32.67;;;;;;;;;;4877692;29;20099;-93
2023/04/20 20:34:40;;;;;;;61.75;35.75;;;;;;;;;;4876857;29;20038;-87
2023/04/20 20:37:08;;;;;;;36.20;21.55;;;;;;;;;;4876585;29;20025;-93
2023/04/20 20:39:35;;;;;;;27.08;18.20;;;;;;;;;;4878791;29;20045;-92
2023/04/20 20:42:01;;;;;;;31.00;19.60;;;;;;;;;;4896308;29;20112;-93
2023/04/20 20:44:31;;;;;;;18.88;14.75;;;;;;;;;;4896423;29;20085;-91
2023/04/20 20:46:57;;;;;;;26.10;19.00;;;;;;;;;;4895820;29;20064;-88
2023/04/20 20:49:32;;;;;;;29.65;18.77;;;;;;;;;;4881116;29;20022;-93
2023/04/20 20:52:00;;;;;;;23.90;17.35;;;;;;;;;;4881367;29;20048;-88
2023/04/20 20:54:27;;;;;;;24.88;18.15;;;;;;;;;;4896245;29;20021;-87
2023/04/20 20:56:53;;;;;;;25.25;18.95;;;;;;;;;;4896151;29;20033;-89
2023/04/20 20:59:19;;;;;;;27.65;20.50;;;;;;;;;;4896969;29;20029;-89
2023/04/20 21:01:45;;;;;;;29.05;21.80;;;;;;;;;;4887394;29;20040;-88
2023/04/20 21:04:12;;;;;;;27.45;22.05;;;;;;;;;;4898335;29;20048;-95
2023/04/20 21:06:41;;;;;;;33.78;23.75;;;;;;;;;;4897385;29;20483;-91
2023/04/20 21:09:14;;;;;;;27.45;20.50;;;;;;;;;;4879849;29;20101;-88
2023/04/20 21:11:40;;;;;;;27.05;20.45;;;;;;;;;;4895887;29;20029;-93
2023/04/20 21:14:06;;;;;;;28.88;22.40;;;;;;;;;;4895916;29;20462;-92
2023/04/20 21:16:35;;;;;;;28.95;22.65;;;;;;;;;;4895475;29;20112;-92
2023/04/20 21:19:02;;;;;;;33.40;25.13;;;;;;;;;;4880000;29;20053;-89
2023/04/20 21:21:28;;;;;;;31.38;23.77;;;;;;;;;;4879461;29;20064;-95
2023/04/20 21:23:55;;;;;;;30.92;23.85;;;;;;;;;;4895423;29;20025;-94
2023/04/20 21:26:21;;;;;;;31.42;24.15;;;;;;;;;;4895395;29;20045;-94
2023/04/20 21:28:47;;;;;;;30.25;22.55;;;;;;;;;;4895649;29;20062;-94
2023/04/20 21:31:14;;;;;;;28.88;19.70;;;;;;;;;;4880237;29;20037;-93
2023/04/20 21:33:40;;;;;;;24.05;19.70;;;;;;;;;;4895536;29;20076;-92
2023/04/20 21:36:07;;;;;;;25.05;18.85;;;;;;;;;;4880398;29;20033;-91
2023/04/20 21:38:33;;;;;;;25.50;18.88;;;;;;;;;;4881286;29;20495;-92
2023/04/20 21:40:59;;;;;;;26.25;19.77;;;;;;;;;;4880865;29;20367;-88
2023/04/20 21:43:25;;;;;;;23.13;17.83;;;;;;;;;;4881325;29;20108;-90
2023/04/20 21:45:51;;;;;;;24.85;18.63;;;;;;;;;;4896953;29;20577;-91
2023/04/20 21:48:18;;;;;;;24.08;18.67;;;;;;;;;;4879968;29;20043;-94
2023/04/20 21:50:44;;;;;;;25.33;19.85;;;;;;;;;;4878504;29;20482;-92
2023/04/20 21:53:10;;;;;;;23.67;19.48;;;;;;;;;;4879804;29;20291;-94
2023/04/20 21:55:36;;;;;;;20.35;17.05;;;;;;;;;;4879775;29;20043;-93
2023/04/20 21:58:02;;;;;;;26.13;19.45;;;;;;;;;;4879400;29;20029;-95
2023/04/20 22:00:29;;;;;;;25.10;18.80;;;;;;;;;;4879570;29;20033;-94
2023/04/20 22:02:55;;;;;;;24.25;18.92;;;;;;;;;;4879461;29;20036;-95
2023/04/20 22:05:21;;;;;;;25.25;19.90;;;;;;;;;;4879102;29;20387;-93
2023/04/20 22:07:47;;;;;;;26.30;20.65;;;;;;;;;;4879364;29;20044;-93
2023/04/20 22:10:14;;;;;;;25.02;19.95;;;;;;;;;;4878832;29;20041;-93
2023/04/20 22:12:44;;;;;;;23.73;18.65;;;;;;;;;;4894776;29;20033;-93
2023/04/20 22:15:12;;;;;;;23.40;19.48;;;;;;;;;;4894883;29;20033;-89
2023/04/20 22:17:39;;;;;;;21.77;17.25;;;;;;;;;;4894430;29;20184;-93
2023/04/20 22:20:08;;;;;;;22.50;19.10;;;;;;;;;;4878662;29;20087;-94
2023/04/20 22:22:37;;;;;;;25.00;18.85;;;;;;;;;;4878750;29;20033;-89
2023/04/20 22:25:07;;;;;;;23.88;18.65;;;;;;;;;;4879106;29;20155;-91
2023/04/20 22:27:37;;;;;;;24.92;18.98;;;;;;;;;;4878940;29;20080;-92
2023/04/20 22:30:04;;;;;;;21.27;17.15;;;;;;;;;;4879628;29;20021;-88
2023/04/20 22:32:30;;;;;;;20.23;15.73;;;;;;;;;;4878965;29;20080;-90
2023/04/20 22:34:56;;;;;;;22.45;17.55;;;;;;;;;;4887814;29;20025;-87
2023/04/20 22:37:23;;;;;;;24.27;17.77;;;;;;;;;;4894401;29;20048;-89
2023/04/20 22:39:49;;;;;;;20.02;15.13;;;;;;;;;;4880896;29;20117;-93
2023/04/20 22:42:18;;;;;;;21.05;16.52;;;;;;;;;;4894095;29;20045;-93
2023/04/20 22:44:44;;;;;;;18.50;15.48;;;;;;;;;;4893679;29;20025;-94
2023/04/20 22:47:10;;;;;;;22.08;17.33;;;;;;;;;;4878680;29;20177;-93
2023/04/20 22:52:49;;;;;;;23.70;16.13;;;;;;;;;;4962745;23;20064;-93
2023/04/20 22:58:29;;;;;;;;;;;;;;;;;;;;;
2023/04/20 23:00:56;;;;;;;21.83;17.65;;;;;;;;;;4856931;29;20208;-93
2023/04/20 23:06:07;;;;;;;22.05;17.17;;;;;;;;;;4860469;29;20140;-93
2023/04/20 23:08:46;;;;;;;;;;;;;;;;;;;;;
2023/04/20 23:11:19;;;;;;;20.80;15.73;;;;;;;;;;4861404;29;20056;-93
2023/04/20 23:13:46;;;;;;;25.52;17.23;;;;;;;;;;4867038;29;20025;-88
2023/04/20 23:16:12;;;;;;;24.65;19.00;;;;;;;;;;4867705;29;20101;-92
2023/04/20 23:18:39;;;;;;;24.70;18.67;;;;;;;;;;4868299;29;20032;-93
2023/04/20 23:21:08;;;;;;;23.17;18.13;;;;;;;;;;4872503;29;20033;-93
2023/04/20 23:23:34;;;;;;;21.90;17.10;;;;;;;;;;4859168;29;20113;-93
2023/04/20 23:26:00;;;;;;;24.48;18.23;;;;;;;;;;4867067;29;20038;-93
2023/04/20 23:28:30;;;;;;;23.63;18.33;;;;;;;;;;4867179;29;20029;-92
2023/04/20 23:30:56;;;;;;;22.48;17.63;;;;;;;;;;4857226;29;20049;-94
2023/04/20 23:33:22;;;;;;;22.92;18.35;;;;;;;;;;4859225;29;20033;-92
2023/04/20 23:35:48;;;;;;;22.38;17.33;;;;;;;;;;4859168;29;20105;-89
2023/04/20 23:38:14;;;;;;;23.05;18.45;;;;;;;;;;4859298;29;20026;-89
2023/04/20 23:40:43;;;;;;;23.25;18.65;;;;;;;;;;4859251;29;20044;-90
2023/04/20 23:43:12;;;;;;;22.50;18.15;;;;;;;;;;4867287;29;20538;-92
2023/04/20 23:45:38;;;;;;;20.20;17.83;;;;;;;;;;4867122;29;20052;-93
2023/04/20 23:48:08;;;;;;;22.70;18.05;;;;;;;;;;4867383;29;20467;-93
2023/04/20 23:50:35;;;;;;;23.25;18.55;;;;;;;;;;4858860;29;20208;-93
2023/04/20 23:53:04;;;;;;;21.95;18.10;;;;;;;;;;4865973;29;20045;-94